sensor_id;sensor_type;location;lat;lon;timestamp;pressure;altitude;pressure_sealevel;temperature;humidity
68628;BME280;55611;48.602;9.490;2023-05-22T00:02:15;96520;;;18;54
68628;BME280;55611;48.602;9.490;2023-05-22T00:04:45;96520;;;17.9;54
68628;BME280;55611;48.602;9.490;2023-05-22T00:07:16;96520;;;17.9;54
68628;BME280;55611;48.602;9.490;2023-05-22T00:09:47;96520;;;17.9;54
68628;BME280;55611;48.602;9.490;2023-05-22T00:12:18;96520;;;17.8;54
68628;BME280;55611;48.602;9.490;2023-05-22T00:14:49;96520;;;17.8;54
68628;BME280;55611;48.602;9.490;2023-05-22T00:17:19;96520;;;17.7;54
68628;BME280;55611;48.602;9.490;2023-05-22T00:19:50;96520;;;17.7;54
68628;BME280;55611;48.602;9.490;2023-05-22T00:22:21;96520;;;17.7;54
68628;BME280;55611;48.602;9.490;2023-05-22T00:24:51;96520;;;17.7;54
68628;BME280;55611;48.602;9.490;2023-05-22T00:27:22;96520;;;17.7;54
68628;BME280;55611;48.602;9.490;2023-05-22T00:29:53;96510;;;17.6;54
68628;BME280;55611;48.602;9.490;2023-05-22T00:32:24;96510;;;17.6;54.5
68628;BME280;55611;48.602;9.490;2023-05-22T00:34:55;96500;;;17.6;54.5
68628;BME280;55611;48.602;9.490;2023-05-22T00:37:25;96500;;;17.6;54.5
68628;BME280;55611;48.602;9.490;2023-05-22T00:39:56;96500;;;17.5;54.5
68628;BME280;55611;48.602;9.490;2023-05-22T00:42:27;96500;;;17.5;54.5
68628;BME280;55611;48.602;9.490;2023-05-22T00:44:58;96500;;;17.5;54.5
68628;BME280;55611;48.602;9.490;2023-05-22T00:47:28;96500;;;17.4;54.5
68628;BME280;55611;48.602;9.490;2023-05-22T00:49:59;96500;;;17.4;54.5
68628;BME280;55611;48.602;9.490;2023-05-22T00:52:30;96500;;;17.3;54.5
68628;BME280;55611;48.602;9.490;2023-05-22T00:55:01;96510;;;17.3;54.5
68628;BME280;55611;48.602;9.490;2023-05-22T00:57:32;96500;;;17.3;54.5
68628;BME280;55611;48.602;9.490;2023-05-22T01:00:03;96510;;;17.3;54.5
68628;BME280;55611;48.602;9.490;2023-05-22T01:02:33;96500;;;17.3;54.5
68628;BME280;55611;48.602;9.490;2023-05-22T01:05:04;96510;;;17.2;54.5
68628;BME280;55611;48.602;9.490;2023-05-22T01:07:35;96510;;;17.3;54.5
68628;BME280;55611;48.602;9.490;2023-05-22T01:10:06;96510;;;17.3;54.5
68628;BME280;55611;48.602;9.490;2023-05-22T01:12:40;96510;;;17.3;54.5
68628;BME280;55611;48.602;9.490;2023-05-22T01:15:10;96510;;;17.3;54.5
68628;BME280;55611;48.602;9.490;2023-05-22T01:17:46;96510;;;17.3;54.5
68628;BME280;55611;48.602;9.490;2023-05-22T01:20:12;96510;;;17.3;54.5
68628;BME280;55611;48.602;9.490;2023-05-22T01:22:48;96510;;;17.3;54.5
68628;BME280;55611;48.602;9.490;2023-05-22T01:25:31;96510;;;17.2;54.5
68628;BME280;55611;48.602;9.490;2023-05-22T01:30:16;96520;;;17.3;54.5
68628;BME280;55611;48.602;9.490;2023-05-22T01:32:42;96520;;;17.4;54.5
68628;BME280;55611;48.602;9.490;2023-05-22T01:35:14;96520;;;17.4;54.5
68628;BME280;55611;48.602;9.490;2023-05-22T01:37:44;96520;;;17.4;54.5
68628;BME280;55611;48.602;9.490;2023-05-22T01:40:15;96520;;;17.4;54.5
68628;BME280;55611;48.602;9.490;2023-05-22T01:42:46;96520;;;17.3;54.5
68628;BME280;55611;48.602;9.490;2023-05-22T01:45:16;96520;;;17.3;54.5
68628;BME280;55611;48.602;9.490;2023-05-22T01:47:47;96520;;;17.3;54.5
68628;BME280;55611;48.602;9.490;2023-05-22T01:50:18;96530;;;17.4;54.5
68628;BME280;55611;48.602;9.490;2023-05-22T01:52:53;96530;;;17.3;54.5
68628;BME280;55611;48.602;9.490;2023-05-22T01:55:23;96530;;;17.3;54.5
68628;BME280;55611;48.602;9.490;2023-05-22T01:57:55;96540;;;17.2;54.5
68628;BME280;55611;48.602;9.490;2023-05-22T02:00:21;96540;;;17.1;54.5
68628;BME280;55611;48.602;9.490;2023-05-22T02:02:56;96540;;;17;54.5
68628;BME280;55611;48.602;9.490;2023-05-22T02:05:23;96540;;;16.9;54.5
68628;BME280;55611;48.602;9.490;2023-05-22T02:07:54;96540;;;16.8;54.5
68628;BME280;55611;48.602;9.490;2023-05-22T02:10:24;96540;;;16.7;54.5
68628;BME280;55611;48.602;9.490;2023-05-22T02:12:55;96540;;;16.6;54.5
68628;BME280;55611;48.602;9.490;2023-05-22T02:15:26;96540;;;16.6;54.5
68628;BME280;55611;48.602;9.490;2023-05-22T02:17:58;96540;;;16.6;55
68628;BME280;55611;48.602;9.490;2023-05-22T02:20:28;96540;;;16.6;55
68628;BME280;55611;48.602;9.490;2023-05-22T02:22:58;96540;;;16.6;55
68628;BME280;55611;48.602;9.490;2023-05-22T02:25:29;96530;;;16.6;55
68628;BME280;55611;48.602;9.490;2023-05-22T02:27:59;96540;;;16.6;55
68628;BME280;55611;48.602;9.490;2023-05-22T02:30:30;96530;;;16.6;55
68628;BME280;55611;48.602;9.490;2023-05-22T02:33:01;96530;;;16.5;55
68628;BME280;55611;48.602;9.490;2023-05-22T02:35:32;96530;;;16.5;55
68628;BME280;55611;48.602;9.490;2023-05-22T02:40:33;96530;;;16.4;55
68628;BME280;55611;48.602;9.490;2023-05-22T02:43:04;96530;;;16.4;55
68628;BME280;55611;48.602;9.490;2023-05-22T02:45:35;96530;;;16.4;55
68628;BME280;55611;48.602;9.490;2023-05-22T02:48:06;96530;;;16.4;55
68628;BME280;55611;48.602;9.490;2023-05-22T02:50:36;96530;;;16.4;55
68628;BME280;55611;48.602;9.490;2023-05-22T02:53:07;96540;;;16.3;55
68628;BME280;55611;48.602;9.490;2023-05-22T02:55:38;96530;;;16.3;55
68628;BME280;55611;48.602;9.490;2023-05-22T02:58:10;96540;;;16.3;55
68628;BME280;55611;48.602;9.490;2023-05-22T03:00:40;96530;;;16.3;55.5
68628;BME280;55611;48.602;9.490;2023-05-22T03:03:10;96540;;;16.3;55.5
68628;BME280;55611;48.602;9.490;2023-05-22T03:05:41;96540;;;16.3;55.5
68628;BME280;55611;48.602;9.490;2023-05-22T03:10:43;96540;;;16.3;55.5
68628;BME280;55611;48.602;9.490;2023-05-22T03:13:13;96540;;;16.3;55.5
68628;BME280;55611;48.602;9.490;2023-05-22T03:15:44;96530;;;16.3;55.5
68628;BME280;55611;48.602;9.490;2023-05-22T03:18:15;96530;;;16.4;55.5
68628;BME280;55611;48.602;9.490;2023-05-22T03:20:46;96530;;;16.4;55.5
68628;BME280;55611;48.602;9.490;2023-05-22T03:23:17;96540;;;16.5;55.5
68628;BME280;55611;48.602;9.490;2023-05-22T03:25:47;96540;;;16.6;55.5
68628;BME280;55611;48.602;9.490;2023-05-22T03:28:18;96540;;;16.6;55.5
68628;BME280;55611;48.602;9.490;2023-05-22T03:30:49;96550;;;16.7;55.5
68628;BME280;55611;48.602;9.490;2023-05-22T03:33:20;96550;;;16.8;55.5
68628;BME280;55611;48.602;9.490;2023-05-22T03:35:50;96560;;;16.8;55.5
68628;BME280;55611;48.602;9.490;2023-05-22T03:38:21;96560;;;16.9;55.5
68628;BME280;55611;48.602;9.490;2023-05-22T03:40:52;96560;;;16.9;55.5
68628;BME280;55611;48.602;9.490;2023-05-22T03:43:23;96550;;;17;55.5
68628;BME280;55611;48.602;9.490;2023-05-22T03:45:53;96550;;;17.1;55.5
68628;BME280;55611;48.602;9.490;2023-05-22T03:48:24;96550;;;17.1;55.5
68628;BME280;55611;48.602;9.490;2023-05-22T03:50:55;96550;;;17.2;55.5
68628;BME280;55611;48.602;9.490;2023-05-22T03:53:26;96550;;;17.3;55.5
68628;BME280;55611;48.602;9.490;2023-05-22T03:55:57;96550;;;17.2;55.5
68628;BME280;55611;48.602;9.490;2023-05-22T03:58:27;96550;;;17.2;55.5
68628;BME280;55611;48.602;9.490;2023-05-22T04:00:58;96560;;;17.2;55.5
68628;BME280;55611;48.602;9.490;2023-05-22T04:03:29;96560;;;17.2;55.5
68628;BME280;55611;48.602;9.490;2023-05-22T04:06:00;96560;;;17.3;55.5
68628;BME280;55611;48.602;9.490;2023-05-22T04:08:30;96560;;;17.4;55.5
68628;BME280;55611;48.602;9.490;2023-05-22T04:11:01;96560;;;17.5;55.5
68628;BME280;55611;48.602;9.490;2023-05-22T04:13:32;96560;;;17.5;55.5
68628;BME280;55611;48.602;9.490;2023-05-22T04:16:03;96560;;;17.5;55.5
68628;BME280;55611;48.602;9.490;2023-05-22T04:18:34;96560;;;17.5;55.5
68628;BME280;55611;48.602;9.490;2023-05-22T04:21:04;96560;;;17.5;55.5
68628;BME280;55611;48.602;9.490;2023-05-22T04:23:35;96560;;;17.4;55.5
68628;BME280;55611;48.602;9.490;2023-05-22T04:26:06;96570;;;17.4;55.5
68628;BME280;55611;48.602;9.490;2023-05-22T04:28:37;96570;;;17.5;55.5
68628;BME280;55611;48.602;9.490;2023-05-22T04:31:07;96570;;;17.7;55.5
68628;BME280;55611;48.602;9.490;2023-05-22T04:33:38;96570;;;17.7;55.5
68628;BME280;55611;48.602;9.490;2023-05-22T04:36:09;96570;;;17.7;55.5
68628;BME280;55611;48.602;9.490;2023-05-22T04:38:40;96570;;;17.7;55.5
68628;BME280;55611;48.602;9.490;2023-05-22T04:41:11;96580;;;17.7;55.5
68628;BME280;55611;48.602;9.490;2023-05-22T04:43:41;96580;;;17.7;55.5
68628;BME280;55611;48.602;9.490;2023-05-22T04:46:13;96580;;;17.7;55.5
68628;BME280;55611;48.602;9.490;2023-05-22T04:48:43;96580;;;17.7;55.5
68628;BME280;55611;48.602;9.490;2023-05-22T04:51:14;96570;;;17.7;55.5
68628;BME280;55611;48.602;9.490;2023-05-22T04:53:44;96570;;;17.8;55.5
68628;BME280;55611;48.602;9.490;2023-05-22T04:56:15;96580;;;17.9;55.5
68628;BME280;55611;48.602;9.490;2023-05-22T04:58:46;96580;;;17.9;55.5
68628;BME280;55611;48.602;9.490;2023-05-22T05:01:17;96580;;;17.9;55.5
68628;BME280;55611;48.602;9.490;2023-05-22T05:03:47;96590;;;18;55.5
68628;BME280;55611;48.602;9.490;2023-05-22T05:06:18;96580;;;18.2;55.5
68628;BME280;55611;48.602;9.490;2023-05-22T05:08:49;96580;;;18.2;55.5
68628;BME280;55611;48.602;9.490;2023-05-22T05:11:20;96580;;;18.2;55.5
68628;BME280;55611;48.602;9.490;2023-05-22T05:13:51;96580;;;18.2;55.5
68628;BME280;55611;48.602;9.490;2023-05-22T05:16:22;96580;;;18.4;55.5
68628;BME280;55611;48.602;9.490;2023-05-22T05:18:52;96590;;;18.6;55.5
68628;BME280;55611;48.602;9.490;2023-05-22T05:21:23;96580;;;18.7;55.5
68628;BME280;55611;48.602;9.490;2023-05-22T05:23:54;96580;;;18.9;55.5
68628;BME280;55611;48.602;9.490;2023-05-22T05:26:24;96580;;;19.1;55.5
68628;BME280;55611;48.602;9.490;2023-05-22T05:28:55;96580;;;19.2;55.5
68628;BME280;55611;48.602;9.490;2023-05-22T05:31:26;96580;;;19.4;55.5
68628;BME280;55611;48.602;9.490;2023-05-22T05:33:57;96580;;;19.4;55.5
68628;BME280;55611;48.602;9.490;2023-05-22T05:36:28;96580;;;19.5;55.5
68628;BME280;55611;48.602;9.490;2023-05-22T05:38:58;96580;;;19.6;55.5
68628;BME280;55611;48.602;9.490;2023-05-22T05:41:29;96580;;;19.7;55.5
68628;BME280;55611;48.602;9.490;2023-05-22T05:44:00;96580;;;19.8;55.5
68628;BME280;55611;48.602;9.490;2023-05-22T05:46:31;96580;;;19.9;55.5
68628;BME280;55611;48.602;9.490;2023-05-22T05:49:05;96580;;;20;55.5
68628;BME280;55611;48.602;9.490;2023-05-22T05:51:32;96580;;;20.1;55.5
68628;BME280;55611;48.602;9.490;2023-05-22T05:54:03;96570;;;20.2;55.5
68628;BME280;55611;48.602;9.490;2023-05-22T05:56:34;96570;;;20.3;55.5
68628;BME280;55611;48.602;9.490;2023-05-22T05:59:05;96570;;;20.4;55
68628;BME280;55611;48.602;9.490;2023-05-22T06:01:35;96580;;;20.4;55
68628;BME280;55611;48.602;9.490;2023-05-22T06:04:06;96580;;;20.5;55
68628;BME280;55611;48.602;9.490;2023-05-22T06:06:37;96580;;;20.7;55
68628;BME280;55611;48.602;9.490;2023-05-22T06:09:08;96580;;;20.8;55
68628;BME280;55611;48.602;9.490;2023-05-22T06:11:38;96580;;;20.7;55
68628;BME280;55611;48.602;9.490;2023-05-22T06:14:09;96590;;;20.7;55
68628;BME280;55611;48.602;9.490;2023-05-22T06:16:40;96590;;;20.7;55
68628;BME280;55611;48.602;9.490;2023-05-22T06:19:11;96590;;;20.7;55
68628;BME280;55611;48.602;9.490;2023-05-22T06:21:42;96590;;;20.7;55
68628;BME280;55611;48.602;9.490;2023-05-22T06:24:12;96590;;;20.8;55
68628;BME280;55611;48.602;9.490;2023-05-22T06:26:43;96580;;;20.9;55
68628;BME280;55611;48.602;9.490;2023-05-22T06:29:14;96580;;;21;55
68628;BME280;55611;48.602;9.490;2023-05-22T06:31:45;96580;;;21;55
68628;BME280;55611;48.602;9.490;2023-05-22T06:34:15;96580;;;21.1;55
68628;BME280;55611;48.602;9.490;2023-05-22T06:36:46;96580;;;21.2;55
68628;BME280;55611;48.602;9.490;2023-05-22T06:39:17;96570;;;21.3;55
68628;BME280;55611;48.602;9.490;2023-05-22T06:41:48;96580;;;21.3;55
68628;BME280;55611;48.602;9.490;2023-05-22T06:44:18;96570;;;21.4;55
68628;BME280;55611;48.602;9.490;2023-05-22T06:46:50;96580;;;21.5;55
68628;BME280;55611;48.602;9.490;2023-05-22T06:49:20;96580;;;21.6;55
68628;BME280;55611;48.602;9.490;2023-05-22T06:51:51;96580;;;21.7;55
68628;BME280;55611;48.602;9.490;2023-05-22T06:54:22;96580;;;21.8;55
68628;BME280;55611;48.602;9.490;2023-05-22T06:56:53;96580;;;21.9;55
68628;BME280;55611;48.602;9.490;2023-05-22T06:59:23;96580;;;22.1;55
68628;BME280;55611;48.602;9.490;2023-05-22T07:01:54;96580;;;22.2;55
68628;BME280;55611;48.602;9.490;2023-05-22T07:04:25;96580;;;22.3;55
68628;BME280;55611;48.602;9.490;2023-05-22T07:06:55;96580;;;22.5;55
68628;BME280;55611;48.602;9.490;2023-05-22T07:09:26;96580;;;22.6;55
68628;BME280;55611;48.602;9.490;2023-05-22T07:11:57;96590;;;22.7;54.5
68628;BME280;55611;48.602;9.490;2023-05-22T07:14:28;96590;;;22.7;54.5
68628;BME280;55611;48.602;9.490;2023-05-22T07:16:59;96590;;;22.7;54.5
68628;BME280;55611;48.602;9.490;2023-05-22T07:19:29;96590;;;22.8;54.5
68628;BME280;55611;48.602;9.490;2023-05-22T07:22:00;96590;;;22.8;54.5
68628;BME280;55611;48.602;9.490;2023-05-22T07:24:31;96590;;;22.9;54.5
68628;BME280;55611;48.602;9.490;2023-05-22T07:27:02;96590;;;23;54.5
68628;BME280;55611;48.602;9.490;2023-05-22T07:29:32;96590;;;23.2;54.5
68628;BME280;55611;48.602;9.490;2023-05-22T07:32:03;96590;;;23.2;54.5
68628;BME280;55611;48.602;9.490;2023-05-22T07:34:34;96590;;;23.2;54.5
68628;BME280;55611;48.602;9.490;2023-05-22T07:37:06;96590;;;23.2;54.5
68628;BME280;55611;48.602;9.490;2023-05-22T07:39:36;96600;;;23.4;54.5
68628;BME280;55611;48.602;9.490;2023-05-22T07:42:06;96590;;;23.6;54.5
68628;BME280;55611;48.602;9.490;2023-05-22T07:44:37;96590;;;23.6;54
68628;BME280;55611;48.602;9.490;2023-05-22T07:47:08;96590;;;23.6;54
68628;BME280;55611;48.602;9.490;2023-05-22T07:49:39;96590;;;23.6;54
68628;BME280;55611;48.602;9.490;2023-05-22T07:52:09;96590;;;23.5;54
68628;BME280;55611;48.602;9.490;2023-05-22T07:54:40;96590;;;23.4;54
68628;BME280;55611;48.602;9.490;2023-05-22T07:57:11;96600;;;23.3;54
68628;BME280;55611;48.602;9.490;2023-05-22T07:59:42;96600;;;23.3;54
68628;BME280;55611;48.602;9.490;2023-05-22T08:02:13;96600;;;23.3;54
68628;BME280;55611;48.602;9.490;2023-05-22T08:04:43;96600;;;23.4;54
68628;BME280;55611;48.602;9.490;2023-05-22T08:07:14;96600;;;23.5;54
68628;BME280;55611;48.602;9.490;2023-05-22T08:09:45;96600;;;23.8;54
68628;BME280;55611;48.602;9.490;2023-05-22T08:12:16;96610;;;23.9;54
68628;BME280;55611;48.602;9.490;2023-05-22T08:14:46;96600;;;23.9;54
68628;BME280;55611;48.602;9.490;2023-05-22T08:17:17;96610;;;23.8;54
68628;BME280;55611;48.602;9.490;2023-05-22T08:19:48;96610;;;23.6;54
68628;BME280;55611;48.602;9.490;2023-05-22T08:22:19;96610;;;23.6;54
68628;BME280;55611;48.602;9.490;2023-05-22T08:24:49;96600;;;23.7;54
68628;BME280;55611;48.602;9.490;2023-05-22T08:27:20;96600;;;23.9;54
68628;BME280;55611;48.602;9.490;2023-05-22T08:29:51;96600;;;24;54
68628;BME280;55611;48.602;9.490;2023-05-22T08:32:22;96610;;;24;54
68628;BME280;55611;48.602;9.490;2023-05-22T08:34:53;96610;;;24;54
68628;BME280;55611;48.602;9.490;2023-05-22T08:37:24;96600;;;24;54
68628;BME280;55611;48.602;9.490;2023-05-22T08:39:54;96600;;;24;54
68628;BME280;55611;48.602;9.490;2023-05-22T08:42:25;96600;;;24.1;54
68628;BME280;55611;48.602;9.490;2023-05-22T08:44:56;96600;;;24.1;54
68628;BME280;55611;48.602;9.490;2023-05-22T08:47:26;96600;;;24.1;54
68628;BME280;55611;48.602;9.490;2023-05-22T08:49:57;96600;;;24.2;54
68628;BME280;55611;48.602;9.490;2023-05-22T08:52:30;96600;;;24.1;54
68628;BME280;55611;48.602;9.490;2023-05-22T08:54:59;96600;;;24.1;54
68628;BME280;55611;48.602;9.490;2023-05-22T08:57:30;96600;;;24.2;54
68628;BME280;55611;48.602;9.490;2023-05-22T09:00:00;96600;;;24.3;54
68628;BME280;55611;48.602;9.490;2023-05-22T09:02:31;96600;;;24.3;54
68628;BME280;55611;48.602;9.490;2023-05-22T09:05:02;96600;;;24.4;54
68628;BME280;55611;48.602;9.490;2023-05-22T09:07:33;96600;;;24.4;54
68628;BME280;55611;48.602;9.490;2023-05-22T09:10:03;96600;;;24.3;54
68628;BME280;55611;48.602;9.490;2023-05-22T09:12:34;96600;;;24.4;53.5
68628;BME280;55611;48.602;9.490;2023-05-22T09:15:06;96600;;;24.3;54
68628;BME280;55611;48.602;9.490;2023-05-22T09:17:37;96600;;;24.4;54
68628;BME280;55611;48.602;9.490;2023-05-22T09:20:07;96600;;;24.5;54
68628;BME280;55611;48.602;9.490;2023-05-22T09:22:37;96600;;;24.5;53.5
68628;BME280;55611;48.602;9.490;2023-05-22T09:25:08;96590;;;24.5;54
68628;BME280;55611;48.602;9.490;2023-05-22T09:27:39;96600;;;24.6;54
68628;BME280;55611;48.602;9.490;2023-05-22T09:30:10;96590;;;24.6;54
68628;BME280;55611;48.602;9.490;2023-05-22T09:32:40;96590;;;24.8;53.5
68628;BME280;55611;48.602;9.490;2023-05-22T09:35:11;96600;;;24.9;53.5
68628;BME280;55611;48.602;9.490;2023-05-22T09:40:13;96600;;;24.8;53.5
68628;BME280;55611;48.602;9.490;2023-05-22T09:42:43;96600;;;24.8;53.5
68628;BME280;55611;48.602;9.490;2023-05-22T09:45:14;96590;;;25;53.5
68628;BME280;55611;48.602;9.490;2023-05-22T09:47:48;96590;;;25.1;53.5
68628;BME280;55611;48.602;9.490;2023-05-22T09:50:16;96580;;;25.3;53.5
68628;BME280;55611;48.602;9.490;2023-05-22T09:52:47;96590;;;25.5;53.5
68628;BME280;55611;48.602;9.490;2023-05-22T09:55:17;96590;;;25.7;53.5
68628;BME280;55611;48.602;9.490;2023-05-22T09:57:50;96590;;;25.6;53.5
68628;BME280;55611;48.602;9.490;2023-05-22T10:00:19;96590;;;25.6;53.5
68628;BME280;55611;48.602;9.490;2023-05-22T10:02:57;96590;;;25.7;53.5
68628;BME280;55611;48.602;9.490;2023-05-22T10:05:20;96590;;;25.7;53
68628;BME280;55611;48.602;9.490;2023-05-22T10:07:53;96590;;;25.7;53
68628;BME280;55611;48.602;9.490;2023-05-22T10:10:23;96590;;;25.7;53
68628;BME280;55611;48.602;9.490;2023-05-22T10:12:55;96580;;;25.7;53
68628;BME280;55611;48.602;9.490;2023-05-22T10:15:24;96580;;;25.8;53
68628;BME280;55611;48.602;9.490;2023-05-22T10:17:54;96580;;;25.7;53
68628;BME280;55611;48.602;9.490;2023-05-22T10:20:26;96580;;;25.7;53
68628;BME280;55611;48.602;9.490;2023-05-22T10:22:56;96580;;;25.8;53
68628;BME280;55611;48.602;9.490;2023-05-22T10:25:27;96580;;;25.9;53
68628;BME280;55611;48.602;9.490;2023-05-22T10:27:58;96580;;;26;53
68628;BME280;55611;48.602;9.490;2023-05-22T10:30:46;96580;;;26;53
68628;BME280;55611;48.602;9.490;2023-05-22T10:33:02;96580;;;26;53
68628;BME280;55611;48.602;9.490;2023-05-22T10:35:34;96580;;;26;53
68628;BME280;55611;48.602;9.490;2023-05-22T10:38:13;96580;;;26;53
68628;BME280;55611;48.602;9.490;2023-05-22T10:43:02;96570;;;25.9;53
68628;BME280;55611;48.602;9.490;2023-05-22T10:45:33;96570;;;25.9;53
68628;BME280;55611;48.602;9.490;2023-05-22T10:48:04;96570;;;26;53
68628;BME280;55611;48.602;9.490;2023-05-22T10:50:35;96560;;;26;53
68628;BME280;55611;48.602;9.490;2023-05-22T10:53:37;96560;;;26.1;53
68628;BME280;55611;48.602;9.490;2023-05-22T10:55:45;96560;;;26.3;53
68628;BME280;55611;48.602;9.490;2023-05-22T10:58:12;96560;;;26.2;53
68628;BME280;55611;48.602;9.490;2023-05-22T11:00:37;96560;;;26.3;53
68628;BME280;55611;48.602;9.490;2023-05-22T11:03:08;96560;;;26.3;53
68628;BME280;55611;48.602;9.490;2023-05-22T11:05:39;96560;;;26.3;53
68628;BME280;55611;48.602;9.490;2023-05-22T11:08:33;96550;;;26.3;53
68628;BME280;55611;48.602;9.490;2023-05-22T11:10:56;96560;;;26.3;53
68628;BME280;55611;48.602;9.490;2023-05-22T11:13:11;96550;;;26.5;53
68628;BME280;55611;48.602;9.490;2023-05-22T11:15:42;96550;;;26.6;53
68628;BME280;55611;48.602;9.490;2023-05-22T11:18:13;96550;;;26.6;52.5
68628;BME280;55611;48.602;9.490;2023-05-22T11:20:44;96550;;;26.7;52.5
68628;BME280;55611;48.602;9.490;2023-05-22T11:23:15;96540;;;26.7;52.5
68628;BME280;55611;48.602;9.490;2023-05-22T11:25:45;96530;;;26.6;52.5
68628;BME280;55611;48.602;9.490;2023-05-22T11:28:16;96530;;;26.7;52.5
68628;BME280;55611;48.602;9.490;2023-05-22T11:30:47;96530;;;26.7;52.5
68628;BME280;55611;48.602;9.490;2023-05-22T11:33:18;96530;;;26.6;52.5
68628;BME280;55611;48.602;9.490;2023-05-22T11:35:48;96520;;;26.5;52.5
68628;BME280;55611;48.602;9.490;2023-05-22T11:38:19;96520;;;26.6;52.5
68628;BME280;55611;48.602;9.490;2023-05-22T11:40:50;96520;;;26.8;52.5
68628;BME280;55611;48.602;9.490;2023-05-22T11:43:28;96510;;;27;52.5
68628;BME280;55611;48.602;9.490;2023-05-22T11:45:51;96510;;;27.2;52.5
68628;BME280;55611;48.602;9.490;2023-05-22T11:48:22;96510;;;27.2;52.5
68628;BME280;55611;48.602;9.490;2023-05-22T11:50:53;96510;;;27.2;52.5
68628;BME280;55611;48.602;9.490;2023-05-22T11:53:24;96510;;;27.3;52.5
68628;BME280;55611;48.602;9.490;2023-05-22T11:55:55;96500;;;27.3;52
68628;BME280;55611;48.602;9.490;2023-05-22T11:58:26;96500;;;27.2;52
68628;BME280;55611;48.602;9.490;2023-05-22T12:00:57;96500;;;27.1;52
68628;BME280;55611;48.602;9.490;2023-05-22T12:03:27;96500;;;27;52
68628;BME280;55611;48.602;9.490;2023-05-22T12:05:58;96500;;;27.1;52.5
68628;BME280;55611;48.602;9.490;2023-05-22T12:08:28;96490;;;27.1;52.5
68628;BME280;55611;48.602;9.490;2023-05-22T12:10:59;96490;;;27.3;52.5
68628;BME280;55611;48.602;9.490;2023-05-22T12:13:30;96500;;;27.5;52.5
68628;BME280;55611;48.602;9.490;2023-05-22T12:16:01;96500;;;27.4;52
68628;BME280;55611;48.602;9.490;2023-05-22T12:18:35;96500;;;27.3;52
68628;BME280;55611;48.602;9.490;2023-05-22T12:21:04;96500;;;27.5;52
68628;BME280;55611;48.602;9.490;2023-05-22T12:23:33;96500;;;27.5;52
68628;BME280;55611;48.602;9.490;2023-05-22T12:26:07;96500;;;27.5;52
68628;BME280;55611;48.602;9.490;2023-05-22T12:28:35;96500;;;27.6;52
68628;BME280;55611;48.602;9.490;2023-05-22T12:31:05;96500;;;27.6;52
68628;BME280;55611;48.602;9.490;2023-05-22T12:33:38;96490;;;27.7;52
68628;BME280;55611;48.602;9.490;2023-05-22T12:38:39;96490;;;27.8;52
68628;BME280;55611;48.602;9.490;2023-05-22T12:41:08;96490;;;27.9;52
68628;BME280;55611;48.602;9.490;2023-05-22T12:43:39;96490;;;27.9;52
68628;BME280;55611;48.602;9.490;2023-05-22T12:46:10;96490;;;28;51.5
68628;BME280;55611;48.602;9.490;2023-05-22T12:48:41;96490;;;27.9;51.5
68628;BME280;55611;48.602;9.490;2023-05-22T12:51:12;96490;;;28;51.5
68628;BME280;55611;48.602;9.490;2023-05-22T12:53:42;96500;;;28.1;51.5
68628;BME280;55611;48.602;9.490;2023-05-22T12:56:13;96500;;;28.1;51.5
68628;BME280;55611;48.602;9.490;2023-05-22T12:58:44;96490;;;28.3;51.5
68628;BME280;55611;48.602;9.490;2023-05-22T13:01:15;96490;;;28.4;51.5
68628;BME280;55611;48.602;9.490;2023-05-22T13:03:46;96490;;;28.3;51.5
68628;BME280;55611;48.602;9.490;2023-05-22T13:06:16;96490;;;28.3;51.5
68628;BME280;55611;48.602;9.490;2023-05-22T13:08:47;96480;;;28.4;51.5
68628;BME280;55611;48.602;9.490;2023-05-22T13:11:18;96480;;;28.5;51.5
68628;BME280;55611;48.602;9.490;2023-05-22T13:13:49;96470;;;28.5;51.5
68628;BME280;55611;48.602;9.490;2023-05-22T13:16:19;96460;;;28.7;51.5
68628;BME280;55611;48.602;9.490;2023-05-22T13:18:50;96460;;;28.7;51.5
68628;BME280;55611;48.602;9.490;2023-05-22T13:21:21;96450;;;28.8;51.5
68628;BME280;55611;48.602;9.490;2023-05-22T13:23:52;96450;;;28.8;51.5
68628;BME280;55611;48.602;9.490;2023-05-22T13:26:22;96450;;;28.9;51.5
68628;BME280;55611;48.602;9.490;2023-05-22T13:28:53;96460;;;29;51
68628;BME280;55611;48.602;9.490;2023-05-22T13:31:24;96460;;;29.1;51
68628;BME280;55611;48.602;9.490;2023-05-22T13:33:55;96460;;;29.2;51
68628;BME280;55611;48.602;9.490;2023-05-22T13:36:25;96460;;;29.2;51
68628;BME280;55611;48.602;9.490;2023-05-22T13:38:56;96460;;;28.9;51
68628;BME280;55611;48.602;9.490;2023-05-22T13:41:27;96460;;;28.9;51
68628;BME280;55611;48.602;9.490;2023-05-22T13:43:58;96460;;;29.1;51
68628;BME280;55611;48.602;9.490;2023-05-22T13:46:29;96460;;;29.2;51
68628;BME280;55611;48.602;9.490;2023-05-22T13:48:59;96470;;;29.2;51
68628;BME280;55611;48.602;9.490;2023-05-22T13:51:30;96460;;;29.1;51
68628;BME280;55611;48.602;9.490;2023-05-22T13:54:01;96460;;;29;51
68628;BME280;55611;48.602;9.490;2023-05-22T13:56:32;96460;;;28.9;51
68628;BME280;55611;48.602;9.490;2023-05-22T13:59:02;96460;;;28.8;51
68628;BME280;55611;48.602;9.490;2023-05-22T14:01:33;96460;;;28.8;51
68628;BME280;55611;48.602;9.490;2023-05-22T14:04:04;96450;;;28.8;51
68628;BME280;55611;48.602;9.490;2023-05-22T14:06:35;96460;;;28.8;51
68628;BME280;55611;48.602;9.490;2023-05-22T14:09:06;96450;;;28.8;51
68628;BME280;55611;48.602;9.490;2023-05-22T14:11:36;96460;;;28.8;51
68628;BME280;55611;48.602;9.490;2023-05-22T14:14:07;96460;;;28.6;51
68628;BME280;55611;48.602;9.490;2023-05-22T14:16:38;96460;;;28.5;51
68628;BME280;55611;48.602;9.490;2023-05-22T14:19:09;96470;;;28.4;51
68628;BME280;55611;48.602;9.490;2023-05-22T14:21:39;96460;;;28.4;51
68628;BME280;55611;48.602;9.490;2023-05-22T14:24:10;96460;;;28.3;51
68628;BME280;55611;48.602;9.490;2023-05-22T14:26:41;96460;;;28.3;51
68628;BME280;55611;48.602;9.490;2023-05-22T14:29:12;96460;;;28.3;51
68628;BME280;55611;48.602;9.490;2023-05-22T14:31:44;96460;;;28.2;51
68628;BME280;55611;48.602;9.490;2023-05-22T14:34:16;96470;;;28.1;51
68628;BME280;55611;48.602;9.490;2023-05-22T14:36:44;96470;;;27.9;51
68628;BME280;55611;48.602;9.490;2023-05-22T14:39:15;96470;;;27.8;51
68628;BME280;55611;48.602;9.490;2023-05-22T14:41:46;96480;;;27.7;51.5
68628;BME280;55611;48.602;9.490;2023-05-22T14:44:16;96480;;;27.5;51.5